| Record Date MM/DD/YYYY | Record Time HH:MM:SS | Record Julian Date NNN day of the year | Air Temperature Max (Degrees Fahrenheit F) | Time Max Air Temperature HH:MM:SS This is the time of max air temp for the prior hour interval listed for record [Time]. | Air Temperature Min (Degrees Fahrenheit F) | Time Min Air Temperature HH:MM:SS This is the time of min air temp for the prior hour interval listed for record [Time]. | Air Temperature Observed (Degrees Fahrenheit F) This is an instantaneous reading at the record [Time]. | Relative Humidity Max (Percent) | Time Max Relative Humidity HH:MM:SS This is the time of max relative humidity for the prior hour interval listed for record [Time]. | Relative Humidity Min (Percent) | Time Min Relative Humidity HH:MM:SS This is the time of min relative humidity for the prior hour interval listed for record [Time]. | Relative Humidity Observed (Percent) This is an instantaneous reading at the record [Time]. | Precipitation (Inches n.nn) rain fall that occurred during the prior hour interval listed for record [Time]. | Wind Speed (Miles Per Hour) Resultant Speed that occurred during the prior hour interval listed for record [Time]. | Wind Direction (Degrees) Resultant Direction that occurred during the prior hour interval listed for record [Time]. | Solar Radiation (Langley's) that occurred during the prior hour interval listed for record [Time]. | Soil Temperature Average at 2 inch depth (Degrees Fahrenheit F) that occurred during the prior hour interval listed for record [Time]. | Soil Temperature Observed at 2 inch depth (Degrees Fahrenheit F) This is an instantaneous reading at the record [Time]. | Soil Temperature Average at 4 inch depth (Degrees Fahrenheit F) that occurred during the prior hour interval listed for record [Time]. | Soil Temperature Observed at 4 inch depth (Degrees Fahrenheit F) This is an instantaneous reading at the record [Time]. |
|---|---|---|---|---|---|---|---|---|---|---|---|---|---|---|---|---|---|---|---|---|
| 08/25/2026 | 0:00:00 | 237 | 73 | 23:00:02 | 73 | 23:59:05 | 73 | 96 | 23:29:02 | 96 | 23:05:03 | 96.4 | 0 | 0.1 | 121 | 0 | 84 | 84 | 85 | 85 |
| 08/25/2026 | 1:00:00 | 237 | 73 | 0:10:05 | 72 | 0:42:04 | 72 | 97 | 0:58:03 | 96 | 0:13:02 | 97.1 | 0 | 0.0 | 53 | 0 | 84 | 83 | 85 | 85 |
| 08/25/2026 | 2:00:00 | 237 | 73 | 1:13:02 | 72 | 1:32:04 | 73 | 97 | 1:55:02 | 97 | 1:22:03 | 97.3 | 0 | 0.2 | 250 | 0 | 83 | 83 | 84 | 84 |
| 08/25/2026 | 3:00:00 | 237 | 73 | 2:43:03 | 73 | 2:12:05 | 73 | 97 | 2:21:03 | 97 | 2:50:00 | 97.2 | 0 | 0.3 | 280 | 0 | 83 | 83 | 84 | 84 |
| 08/25/2026 | 4:00:00 | 237 | 73 | 3:58:04 | 73 | 3:00:00 | 73 | 97 | 3:05:03 | 97 | 3:55:05 | 97.1 | 0 | 0.1 | 55 | 0 | 83 | 82 | 84 | 84 |
| 08/25/2026 | 5:00:00 | 237 | 73 | 4:16:05 | 73 | 4:35:02 | 73 | 97 | 4:11:04 | 97 | 4:28:00 | 97.1 | 0 | 0.1 | 167 | 0 | 82 | 82 | 83 | 83 |
| 08/25/2026 | 6:00:00 | 237 | 73 | 5:57:02 | 73 | 5:33:04 | 73 | 97 | 5:10:00 | 97 | 5:59:05 | 97 | 0 | 0.2 | 195 | 1 | 82 | 82 | 83 | 83 |
| 08/25/2026 | 7:00:00 | 237 | 75 | 6:59:05 | 73 | 6:00:02 | 75 | 97 | 6:01:05 | 96 | 6:59:03 | 95.6 | 0 | 0.2 | 303 | 5 | 82 | 82 | 83 | 83 |
| 08/25/2026 | 8:00:00 | 237 | 79 | 8:00:00 | 75 | 7:01:03 | 79 | 96 | 7:00:01 | 89 | 7:54:01 | 89.4 | 0 | 0.5 | 269 | 15 | 83 | 83 | 83 | 83 |
| 08/25/2026 | 9:00:00 | 237 | 85 | 8:59:05 | 79 | 8:00:02 | 85 | 89 | 8:00:00 | 74 | 8:56:04 | 76.41 | 0 | 1.7 | 274 | 46 | 84 | 86 | 84 | 84 |
| 08/25/2026 | 10:00:00 | 237 | 87 | 9:59:05 | 84 | 9:17:05 | 87 | 79 | 9:18:05 | 67 | 9:59:02 | 68.82 | 0 | 2.7 | 257 | 52 | 87 | 89 | 85 | 86 |
| 08/25/2026 | 11:00:00 | 237 | 89 | 10:51:05 | 86 | 10:17:01 | 88 | 71 | 10:00:04 | 59 | 10:58:00 | 64.3 | 0 | 3.6 | 269 | 52 | 90 | 91 | 87 | 88 |
| 08/25/2026 | 12:00:00 | 237 | 90 | 11:47:00 | 87 | 11:02:01 | 88 | 67 | 11:19:01 | 58 | 11:54:00 | 59.7 | 0 | 3.3 | 283 | 59 | 92 | 93 | 89 | 90 |
| 08/25/2026 | 13:00:00 | 237 | 89 | 12:06:02 | 81 | 12:32:03 | 87 | 90 | 12:36:04 | 59 | 12:06:03 | 71.88 | 0.04 | 2.1 | 349 | 43 | 93 | 93 | 90 | 91 |
| 08/25/2026 | 14:00:00 | 237 | 92 | 13:36:03 | 87 | 13:05:00 | 91 | 75 | 13:03:03 | 61 | 13:43:04 | 62.78 | 0 | 1.8 | 28 | 59 | 94 | 94 | 91 | 92 |
| 08/25/2026 | 15:00:00 | 237 | 95 | 14:26:01 | 91 | 14:00:01 | 92 | 66 | 14:03:02 | 54 | 14:43:02 | 57.54 | 0 | 2.0 | 6 | 50 | 95 | 95 | 92 | 92 |
| 08/25/2026 | 16:00:00 | 237 | 92 | 15:00:01 | 89 | 15:53:04 | 91 | 69 | 15:55:02 | 57 | 15:02:00 | 65.9 | 0 | 2.2 | 302 | 20 | 94 | 93 | 92 | 92 |
| 08/25/2026 | 17:00:00 | 237 | 93 | 16:44:01 | 91 | 16:00:00 | 92 | 68 | 16:59:00 | 60 | 16:44:01 | 62.46 | 0 | 2.0 | 293 | 22 | 93 | 92 | 92 | 92 |
| 08/25/2026 | 18:00:00 | 237 | 92 | 17:00:00 | 86 | 17:59:05 | 86 | 78 | 17:58:05 | 62 | 17:00:02 | 76.88 | 0 | 0.6 | 207 | 8 | 92 | 91 | 91 | 91 |
| 08/25/2026 | 19:00:00 | 237 | 86 | 18:00:01 | 80 | 18:59:01 | 80 | 88 | 18:57:00 | 77 | 18:00:00 | 88 | 0 | 0.2 | 156 | 1 | 90 | 89 | 90 | 90 |
| 08/25/2026 | 20:00:00 | 237 | 81 | 19:00:00 | 79 | 19:59:01 | 79 | 93 | 19:58:03 | 88 | 19:01:00 | 92.8 | 0 | 0.1 | 202 | 0 | 89 | 88 | 89 | 89 |
| 08/25/2026 | 21:00:00 | 237 | 79 | 20:00:00 | 78 | 20:59:00 | 78 | 95 | 20:59:04 | 93 | 20:00:00 | 94.5 | 0 | 0.0 | 115 | 0 | 88 | 87 | 88 | 88 |
| 08/25/2026 | 22:00:00 | 237 | 78 | 21:00:05 | 77 | 21:58:05 | 77 | 96 | 21:52:04 | 95 | 21:04:04 | 95.3 | 0 | 0.0 | 71 | 0 | 87 | 86 | 88 | 87 |
| 08/25/2026 | 23:00:00 | 237 | 77 | 22:00:00 | 77 | 22:44:04 | 77 | 96 | 22:56:05 | 95 | 22:06:04 | 96.3 | 0 | 0.1 | 49 | 0 | 86 | 86 | 87 | 87 |
| 08/26/2026 | 0:00:00 | 238 | 77 | 23:00:02 | 76 | 23:32:02 | 77 | 97 | 23:49:02 | 96 | 23:18:05 | 96.5 | 0 | 0.0 | 36 | 0 | 86 | 85 | 86 | 86 |
| 08/26/2026 | 1:00:00 | 238 | 77 | 0:00:02 | 76 | 0:59:02 | 76 | 97 | 0:36:04 | 97 | 0:02:01 | 96.7 | 0 | 0.1 | 230 | 0 | 85 | 85 | 86 | 86 |
| 08/26/2026 | 2:00:00 | 238 | 76 | 1:00:02 | 76 | 1:24:00 | 76 | 97 | 1:42:03 | 97 | 1:17:00 | 97 | 0 | 0.1 | 65 | 0 | 85 | 84 | 86 | 85 |
| 08/26/2026 | 3:00:00 | 238 | 76 | 2:00:01 | 75 | 2:55:01 | 75 | 98 | 2:26:05 | 97 | 2:01:04 | 97.2 | 0 | 0.0 | 73 | 0 | 84 | 84 | 85 | 85 |
| 08/26/2026 | 4:00:00 | 238 | 75 | 3:05:00 | 74 | 3:57:05 | 74 | 98 | 3:38:05 | 97 | 3:17:05 | 97.4 | 0 | 0.0 | 136 | 0 | 84 | 83 | 85 | 84 |
| 08/26/2026 | 5:00:00 | 238 | 74 | 4:13:02 | 73 | 4:46:02 | 73 | 98 | 4:52:01 | 97 | 4:36:00 | 97.8 | 0 | 0.2 | 230 | 0 | 83 | 83 | 84 | 84 |
| 08/26/2026 | 6:00:00 | 238 | 74 | 5:11:05 | 72 | 5:28:01 | 73 | 98 | 5:40:02 | 97 | 5:24:01 | 98.2 | 0 | 0.0 | 0 | 1 | 83 | 82 | 84 | 84 |
| 08/26/2026 | 7:00:00 | 238 | 77 | 6:59:04 | 73 | 6:00:00 | 77 | 98 | 6:16:03 | 98 | 6:58:01 | 97.7 | 0 | 0.0 | 114 | 7 | 82 | 83 | 83 | 83 |
| 08/26/2026 | 8:00:00 | 238 | 84 | 7:47:03 | 77 | 7:01:02 | 83 | 98 | 7:00:00 | 77 | 7:47:05 | 79.44 | 0 | 1.3 | 214 | 25 | 83 | 84 | 84 | 84 |
| 08/26/2026 | 9:00:00 | 238 | 88 | 8:59:05 | 83 | 8:00:05 | 88 | 81 | 8:00:01 | 69 | 8:56:05 | 70.45 | 0 | 3.7 | 253 | 41 | 85 | 87 | 84 | 85 |
| 08/26/2026 | 10:00:00 | 238 | 89 | 9:53:01 | 87 | 9:17:01 | 89 | 75 | 9:19:01 | 69 | 9:00:05 | 71 | 0 | 3.8 | 264 | 39 | 88 | 88 | 86 | 87 |
| 08/26/2026 | 11:00:00 | 238 | 92 | 10:59:01 | 89 | 10:01:02 | 92 | 74 | 10:03:00 | 59 | 11:00:00 | 59.07 | 0 | 4.0 | 256 | 63 | 90 | 92 | 87 | 88 |
| 08/26/2026 | 12:00:00 | 238 | 95 | 11:22:00 | 92 | 11:00:03 | 95 | 65 | 11:01:00 | 55 | 11:59:02 | 58.08 | 0 | 4.2 | 269 | 72 | 93 | 95 | 90 | 91 |
| 08/26/2026 | 13:00:00 | 238 | 97 | 12:55:00 | 93 | 12:08:05 | 96 | 59 | 12:02:05 | 48 | 12:46:05 | 50.6 | 0 | 4.6 | 258 | 56 | 95 | 96 | 92 | 92 |
| 08/26/2026 | 14:00:00 | 238 | 98 | 13:46:02 | 96 | 13:00:00 | 97 | 55 | 14:00:00 | 45 | 13:17:05 | 55.27 | 0 | 5.0 | 256 | 67 | 97 | 98 | 93 | 94 |
| 08/26/2026 | 15:00:00 | 238 | 98 | 14:17:05 | 90 | 14:51:02 | 92 | 58 | 14:25:01 | 47 | 14:10:01 | 53.67 | 0 | 6.9 | 259 | 48 | 98 | 97 | 94 | 95 |
| 08/26/2026 | 16:00:00 | 238 | 96 | 15:46:05 | 89 | 15:08:00 | 95 | 59 | 15:08:00 | 43 | 15:38:02 | 52.22 | 0 | 3.4 | 229 | 43 | 97 | 97 | 94 | 94 |
| 08/26/2026 | 17:00:00 | 238 | 95 | 16:00:01 | 88 | 16:59:05 | 88 | 70 | 16:59:00 | 51 | 16:00:01 | 66.63 | 0 | 2.4 | 153 | 22 | 96 | 95 | 94 | 94 |
| 08/26/2026 | 18:00:00 | 238 | 88 | 17:00:00 | 85 | 18:00:00 | 85 | 74 | 17:24:05 | 66 | 17:00:04 | 73.76 | 0 | 1.3 | 86 | 8 | 94 | 94 | 94 | 93 |
| 08/26/2026 | 19:00:00 | 238 | 85 | 18:00:00 | 80 | 18:59:05 | 80 | 80 | 18:58:04 | 74 | 18:12:04 | 80.2 | 0 | 2.0 | 89 | 1 | 93 | 92 | 93 | 92 |
| 08/26/2026 | 20:00:00 | 238 | 80 | 19:00:01 | 78 | 19:42:05 | 79 | 84 | 19:42:03 | 80 | 19:00:00 | 83.2 | 0 | 1.7 | 33 | 0 | 91 | 90 | 91 | 91 |
| 08/26/2026 | 21:00:00 | 238 | 79 | 20:05:02 | 72 | 20:59:05 | 72 | 95 | 20:47:01 | 82 | 20:05:00 | 95.2 | 0.91 | 3.2 | 312 | 0 | 89 | 85 | 90 | 88 |
| 08/26/2026 | 22:00:00 | 238 | 74 | 21:38:01 | 72 | 21:07:05 | 73 | 96 | 21:11:03 | 88 | 21:40:03 | 90.4 | 0.1 | 4.1 | 262 | 0 | 84 | 84 | 86 | 86 |
| 08/26/2026 | 23:00:00 | 238 | 73 | 22:00:00 | 71 | 22:30:05 | 72 | 95 | 22:49:02 | 90 | 22:00:03 | 95.1 | 0.03 | 1.9 | 95 | 0 | 84 | 83 | 85 | 85 |
| 08/27/2026 | 0:00:00 | 239 | 72 | 23:50:03 | 72 | 23:02:00 | 72 | 96 | 23:49:03 | 95 | 23:06:03 | 95.3 | 0 | 2.3 | 344 | 0 | 83 | 83 | 85 | 84 |
| 08/27/2026 | 1:00:00 | 239 | 72 | 0:11:05 | 72 | 0:59:05 | 72 | 97 | 0:39:01 | 95 | 0:15:00 | 96.2 | 0 | 0.6 | 153 | 0 | 83 | 82 | 84 | 84 |
| 08/27/2026 | 2:00:00 | 239 | 72 | 1:58:03 | 72 | 1:03:00 | 72 | 97 | 1:16:00 | 95 | 1:59:03 | 95.1 | 0 | 2.1 | 344 | 0 | 82 | 82 | 84 | 84 |
| 08/27/2026 | 3:00:00 | 239 | 72 | 2:09:03 | 72 | 2:59:00 | 72 | 96 | 2:47:04 | 94 | 2:20:00 | 96.3 | 0 | 0.9 | 197 | 0 | 82 | 82 | 83 | 83 |
| 08/27/2026 | 4:00:00 | 239 | 72 | 3:59:02 | 72 | 3:48:05 | 72 | 97 | 3:57:02 | 96 | 3:00:00 | 97 | 0 | 1.0 | 326 | 0 | 82 | 81 | 83 | 83 |
| 08/27/2026 | 5:00:00 | 239 | 72 | 4:00:00 | 72 | 4:14:02 | 72 | 97 | 4:42:03 | 97 | 4:05:01 | 97 | 0 | 0.7 | 155 | 0 | 81 | 81 | 83 | 83 |
| 08/27/2026 | 6:00:00 | 239 | 72 | 5:11:04 | 72 | 5:48:05 | 72 | 98 | 5:55:05 | 97 | 5:00:03 | 97.3 | 0.01 | 0.2 | 137 | 0 | 81 | 81 | 82 | 82 |
| 08/27/2026 | 7:00:00 | 239 | 74 | 6:59:05 | 72 | 6:00:04 | 74 | 98 | 6:08:00 | 97 | 6:56:04 | 97 | 0 | 0.3 | 22 | 7 | 81 | 81 | 82 | 82 |
| 08/27/2026 | 8:00:00 | 239 | 77 | 7:53:04 | 74 | 7:00:00 | 77 | 97 | 7:00:04 | 89 | 7:57:05 | 89.6 | 0 | 0.9 | 266 | 21 | 82 | 83 | 82 | 83 |
| 08/27/2026 | 9:00:00 | 239 | 79 | 8:56:00 | 76 | 8:04:03 | 78 | 91 | 8:13:03 | 85 | 9:00:00 | 85.1 | 0 | 1.2 | 249 | 25 | 83 | 84 | 83 | 83 |
| 08/27/2026 | 10:00:00 | 239 | 80 | 9:48:01 | 78 | 9:09:04 | 80 | 88 | 9:25:04 | 82 | 9:49:01 | 84.2 | 0 | 2.3 | 312 | 32 | 85 | 85 | 84 | 84 |
| 08/27/2026 | 11:00:00 | 239 | 84 | 11:00:00 | 80 | 10:00:05 | 84 | 85 | 10:02:04 | 77 | 10:57:04 | 80.1 | 0 | 1.3 | 320 | 45 | 86 | 87 | 85 | 85 |
| 08/27/2026 | 12:00:00 | 239 | 87 | 11:51:05 | 83 | 11:10:00 | 86 | 80 | 11:16:00 | 65 | 11:58:02 | 71.64 | 0 | 2.1 | 284 | 71 | 89 | 91 | 86 | 87 |
| 08/27/2026 | 13:00:00 | 239 | 89 | 12:51:05 | 86 | 12:01:02 | 88 | 74 | 12:26:04 | 65 | 12:42:04 | 72.48 | 0 | 2.4 | 304 | 71 | 92 | 93 | 89 | 90 |
| 08/27/2026 | 14:00:00 | 239 | 91 | 14:00:00 | 88 | 13:04:01 | 91 | 73 | 13:22:05 | 63 | 13:36:05 | 63.69 | 0 | 2.1 | 292 | 65 | 94 | 94 | 90 | 91 |
| 08/27/2026 | 15:00:00 | 239 | 92 | 14:34:02 | 90 | 14:48:01 | 91 | 70 | 14:18:00 | 57 | 14:37:01 | 62.43 | 0 | 2.3 | 335 | 58 | 95 | 95 | 92 | 92 |
| 08/27/2026 | 16:00:00 | 239 | 93 | 15:51:01 | 90 | 15:03:02 | 92 | 68 | 15:17:02 | 56 | 15:52:04 | 58.98 | 0 | 2.4 | 7 | 41 | 94 | 94 | 92 | 92 |
| 08/27/2026 | 17:00:00 | 239 | 92 | 16:02:05 | 90 | 16:59:04 | 90 | 65 | 16:07:02 | 53 | 16:34:02 | 55.53 | 0 | 2.4 | 14 | 24 | 93 | 92 | 92 | 92 |
| 08/27/2026 | 18:00:00 | 239 | 90 | 17:08:04 | 85 | 17:59:05 | 85 | 71 | 17:55:05 | 54 | 17:01:01 | 70.25 | 0 | 0.8 | 92 | 8 | 91 | 90 | 91 | 90 |
| 08/27/2026 | 19:00:00 | 239 | 85 | 18:00:00 | 78 | 19:00:00 | 78 | 89 | 18:59:03 | 71 | 18:00:00 | 89.3 | 0 | 0.1 | 156 | 1 | 89 | 88 | 90 | 89 |
| 08/27/2026 | 20:00:00 | 239 | 78 | 19:00:01 | 76 | 19:56:04 | 76 | 92 | 19:59:05 | 89 | 19:03:02 | 91.9 | 0 | 0.1 | 154 | 0 | 88 | 87 | 89 | 88 |
| 08/27/2026 | 21:00:00 | 239 | 76 | 20:00:03 | 75 | 20:58:04 | 75 | 95 | 20:59:05 | 92 | 20:00:01 | 94.7 | 0 | 0.0 | 109 | 0 | 86 | 86 | 88 | 87 |
| 08/27/2026 | 22:00:00 | 239 | 75 | 21:01:00 | 74 | 21:59:00 | 74 | 96 | 21:53:03 | 95 | 21:04:02 | 95.4 | 0 | 0.1 | 130 | 0 | 85 | 85 | 87 | 86 |
| 08/27/2026 | 23:00:00 | 239 | 74 | 22:03:04 | 74 | 22:59:05 | 74 | 96 | 22:46:04 | 95 | 22:00:00 | 96.2 | 0 | 0.0 | 0 | 0 | 85 | 84 | 86 | 86 |
| 08/28/2026 | 0:00:00 | 240 | 74 | 23:21:02 | 73 | 23:52:02 | 73 | 97 | 23:54:05 | 96 | 23:02:02 | 96.8 | 0 | 0.0 | 0 | 0 | 84 | 84 | 85 | 85 |
| 08/28/2026 | 1:00:00 | 240 | 73 | 0:38:01 | 73 | 0:27:02 | 73 | 98 | 0:35:02 | 97 | 0:00:03 | 97.1 | 0 | 0.0 | 159 | 0 | 83 | 83 | 85 | 84 |
| 08/28/2026 | 2:00:00 | 240 | 73 | 1:12:04 | 72 | 1:52:04 | 72 | 98 | 2:00:00 | 97 | 1:02:03 | 97.6 | 0 | 0.0 | 159 | 0 | 83 | 82 | 84 | 84 |
| 08/28/2026 | 3:00:00 | 240 | 73 | 2:15:01 | 72 | 2:51:03 | 72 | 98 | 2:57:04 | 97 | 2:48:04 | 97.7 | 0 | 0.0 | 286 | 0 | 82 | 82 | 84 | 83 |
| 08/28/2026 | 4:00:00 | 240 | 72 | 3:36:02 | 72 | 3:20:02 | 72 | 98 | 3:33:03 | 98 | 3:21:03 | 97.9 | 0 | 0.1 | 194 | 0 | 82 | 82 | 83 | 83 |
| 08/28/2026 | 5:00:00 | 240 | 72 | 4:07:03 | 72 | 4:21:04 | 72 | 98 | 4:50:04 | 98 | 4:21:03 | 98.2 | 0 | 0.2 | 14 | 0 | 81 | 81 | 83 | 83 |
| 08/28/2026 | 6:00:00 | 240 | 72 | 5:51:04 | 72 | 5:09:01 | 72 | 99 | 5:53:05 | 98 | 5:06:04 | 98.3 | 0 | 0.1 | 215 | 1 | 81 | 81 | 82 | 82 |
| 08/28/2026 | 7:00:00 | 240 | 74 | 6:55:05 | 72 | 6:07:03 | 73 | 99 | 6:35:04 | 98 | 6:59:02 | 98.1 | 0 | 0.4 | 58 | 6 | 81 | 81 | 82 | 82 |
| 08/28/2026 | 8:00:00 | 240 | 78 | 7:57:04 | 73 | 7:02:02 | 78 | 99 | 7:25:01 | 89 | 8:00:00 | 88.9 | 0 | 1.0 | 65 | 21 | 82 | 82 | 82 | 82 |
| 08/28/2026 | 9:00:00 | 240 | 81 | 8:17:03 | 76 | 9:00:00 | 76 | 94 | 8:59:03 | 83 | 8:19:01 | 93.7 | 0.14 | 2.6 | 30 | 16 | 83 | 83 | 83 | 83 |
| 08/28/2026 | 10:00:00 | 240 | 78 | 10:00:00 | 76 | 9:00:04 | 78 | 94 | 9:43:02 | 93 | 9:58:01 | 93 | 0.01 | 1.3 | 47 | 10 | 83 | 83 | 83 | 83 |
| 08/28/2026 | 11:00:00 | 240 | 85 | 10:59:02 | 78 | 10:00:00 | 85 | 94 | 10:05:01 | 77 | 10:59:05 | 77.17 | 0 | 1.3 | 45 | 52 | 84 | 86 | 84 | 84 |
| 08/28/2026 | 12:00:00 | 240 | 90 | 11:50:01 | 85 | 11:01:02 | 89 | 79 | 11:05:05 | 50 | 11:57:02 | 53.7 | 0 | 1.9 | 49 | 72 | 89 | 90 | 86 | 87 |
| 08/28/2026 | 13:00:00 | 240 | 92 | 12:43:05 | 89 | 12:31:04 | 89 | 66 | 12:31:00 | 47 | 12:43:03 | 58.44 | 0 | 2.8 | 56 | 60 | 92 | 92 | 88 | 89 |
| 08/28/2026 | 14:00:00 | 240 | 93 | 13:58:00 | 89 | 13:00:00 | 92 | 65 | 13:04:01 | 43 | 13:46:04 | 50.39 | 0 | 2.8 | 51 | 56 | 92 | 92 | 90 | 90 |
| 08/28/2026 | 15:00:00 | 240 | 93 | 14:12:03 | 92 | 14:00:03 | 93 | 55 | 14:04:01 | 41 | 14:23:05 | 42.09 | 0 | 3.0 | 25 | 61 | 93 | 93 | 90 | 91 |
| 08/28/2026 | 16:00:00 | 240 | 95 | 15:21:00 | 92 | 15:32:03 | 93 | 57 | 15:33:05 | 36 | 15:20:00 | 43.25 | 0 | 1.8 | 19 | 39 | 93 | 92 | 91 | 91 |
| 08/28/2026 | 17:00:00 | 240 | 93 | 16:15:00 | 90 | 16:58:01 | 90 | 57 | 16:23:05 | 40 | 16:14:01 | 49.36 | 0 | 1.5 | 79 | 24 | 92 | 91 | 91 | 90 |
| 08/28/2026 | 18:00:00 | 240 | 91 | 17:03:01 | 82 | 17:58:00 | 82 | 71 | 17:51:05 | 50 | 17:00:00 | 69.75 | 0 | 0.7 | 133 | 7 | 90 | 89 | 90 | 89 |
| 08/28/2026 | 19:00:00 | 240 | 83 | 18:03:01 | 75 | 19:00:00 | 75 | 90 | 18:59:01 | 69 | 18:02:05 | 89.2 | 0 | 0.1 | 129 | 1 | 88 | 87 | 89 | 88 |
| 08/28/2026 | 20:00:00 | 240 | 75 | 19:15:04 | 73 | 19:50:02 | 73 | 94 | 19:58:05 | 89 | 19:08:01 | 93.6 | 0 | 0.1 | 349 | 0 | 86 | 86 | 87 | 87 |
| 08/28/2026 | 21:00:00 | 240 | 73 | 20:00:00 | 71 | 20:58:00 | 71 | 95 | 20:52:02 | 93 | 20:12:03 | 94.1 | 0 | 0.1 | 277 | 0 | 85 | 84 | 86 | 86 |
| 08/28/2026 | 22:00:00 | 240 | 71 | 21:00:05 | 70 | 21:59:02 | 70 | 95 | 21:55:03 | 94 | 21:05:05 | 94.9 | 0 | 0.0 | 279 | 0 | 84 | 83 | 85 | 85 |
| 08/28/2026 | 23:00:00 | 240 | 70 | 22:00:00 | 68 | 22:59:01 | 68 | 96 | 22:35:00 | 95 | 22:18:02 | 95.2 | 0 | 0.2 | 273 | 0 | 83 | 82 | 84 | 84 |
| 08/29/2026 | 0:00:00 | 241 | 68 | 23:07:00 | 67 | 23:58:03 | 67 | 96 | 23:54:04 | 95 | 23:00:02 | 96 | 0 | 0.0 | 245 | 0 | 82 | 81 | 83 | 83 |
| 08/29/2026 | 1:00:00 | 241 | 67 | 0:06:00 | 66 | 0:52:02 | 67 | 97 | 0:58:01 | 96 | 0:00:01 | 96.7 | 0 | 0.0 | 0 | 0 | 81 | 80 | 83 | 82 |
| 08/29/2026 | 2:00:00 | 241 | 67 | 1:00:04 | 65 | 1:59:03 | 65 | 97 | 1:31:02 | 97 | 1:13:05 | 97 | 0 | 0.0 | 272 | 0 | 80 | 80 | 82 | 82 |
| 08/29/2026 | 3:00:00 | 241 | 66 | 2:25:03 | 65 | 2:42:05 | 65 | 98 | 2:55:02 | 97 | 2:02:04 | 97.4 | 0 | 0.1 | 268 | 0 | 79 | 79 | 81 | 81 |
| 08/29/2026 | 4:00:00 | 241 | 65 | 3:06:01 | 64 | 3:23:05 | 64 | 98 | 3:38:00 | 97 | 3:20:01 | 97.8 | 0 | 0.0 | 261 | 0 | 78 | 78 | 81 | 80 |
| 08/29/2026 | 5:00:00 | 241 | 64 | 4:02:03 | 63 | 4:58:04 | 63 | 98 | 4:41:04 | 98 | 4:08:03 | 97.8 | 0 | 0.0 | 165 | 0 | 78 | 78 | 80 | 80 |
| 08/29/2026 | 6:00:00 | 241 | 63 | 5:02:02 | 63 | 5:36:05 | 63 | 98 | 5:50:02 | 98 | 5:00:00 | 98.2 | 0 | 0.0 | 0 | 1 | 77 | 77 | 79 | 79 |
| 08/29/2026 | 7:00:00 | 241 | 67 | 6:58:04 | 63 | 6:00:02 | 67 | 99 | 6:53:05 | 98 | 6:00:01 | 98.5 | 0 | 0.0 | 170 | 6 | 77 | 77 | 79 | 79 |
| 08/29/2026 | 8:00:00 | 241 | 78 | 7:59:03 | 67 | 7:00:02 | 78 | 99 | 7:00:00 | 77 | 7:58:04 | 77.04 | 0 | 0.2 | 155 | 32 | 78 | 79 | 79 | 79 |
| 08/29/2026 | 9:00:00 | 241 | 83 | 8:59:05 | 78 | 8:04:04 | 83 | 81 | 8:18:01 | 65 | 8:57:00 | 66.36 | 0 | 2.0 | 78 | 48 | 81 | 83 | 80 | 81 |
| 08/29/2026 | 10:00:00 | 241 | 87 | 9:55:02 | 83 | 9:01:00 | 87 | 70 | 9:07:05 | 51 | 9:58:01 | 54.48 | 0 | 2.0 | 73 | 61 | 84 | 86 | 82 | 83 |
| 08/29/2026 | 11:00:00 | 241 | 90 | 10:33:02 | 87 | 10:00:00 | 89 | 58 | 10:20:00 | 39 | 10:34:04 | 48.38 | 0 | 1.9 | 311 | 70 | 88 | 89 | 84 | 86 |
| 08/29/2026 | 12:00:00 | 241 | 91 | 12:00:00 | 88 | 11:06:05 | 91 | 56 | 11:47:00 | 41 | 11:55:03 | 47.32 | 0 | 3.4 | 313 | 74 | 90 | 91 | 87 | 88 |
| 08/29/2026 | 13:00:00 | 241 | 93 | 12:54:03 | 90 | 12:12:00 | 93 | 52 | 12:00:02 | 35 | 12:54:05 | 38.82 | 0 | 2.3 | 297 | 74 | 92 | 93 | 89 | 89 |
| 08/29/2026 | 14:00:00 | 241 | 94 | 13:48:01 | 91 | 13:19:03 | 93 | 47 | 13:16:03 | 33 | 13:37:02 | 43.09 | 0 | 2.1 | 288 | 68 | 93 | 94 | 90 | 91 |
| 08/29/2026 | 15:00:00 | 241 | 94 | 14:52:00 | 92 | 14:16:03 | 93 | 48 | 14:59:03 | 34 | 14:13:05 | 44.23 | 0 | 1.9 | 5 | 58 | 94 | 94 | 91 | 91 |
| 08/29/2026 | 16:00:00 | 241 | 95 | 15:43:05 | 93 | 15:49:05 | 94 | 52 | 15:06:00 | 36 | 15:40:03 | 43.34 | 0 | 0.9 | 163 | 38 | 93 | 93 | 91 | 91 |
| 08/29/2026 | 17:00:00 | 241 | 94 | 16:24:02 | 90 | 16:59:04 | 90 | 53 | 17:00:00 | 37 | 16:07:00 | 53.19 | 0 | 0.6 | 133 | 21 | 92 | 91 | 91 | 91 |
| 08/29/2026 | 18:00:00 | 241 | 90 | 17:04:02 | 86 | 18:00:00 | 86 | 66 | 17:40:05 | 48 | 17:03:04 | 63.96 | 0 | 0.4 | 142 | 8 | 90 | 89 | 90 | 90 |
| 08/29/2026 | 19:00:00 | 241 | 86 | 18:00:00 | 76 | 18:59:05 | 76 | 89 | 18:59:04 | 64 | 18:00:00 | 89.2 | 0 | 0.0 | 156 | 1 | 88 | 87 | 89 | 88 |
| 08/29/2026 | 20:00:00 | 241 | 76 | 19:00:01 | 73 | 20:00:00 | 73 | 92 | 19:53:00 | 89 | 19:03:03 | 91.8 | 0 | 0.0 | 0 | 0 | 87 | 86 | 88 | 87 |
| 08/29/2026 | 21:00:00 | 241 | 73 | 20:00:00 | 72 | 20:53:02 | 72 | 94 | 20:31:04 | 92 | 20:00:01 | 93.2 | 0 | 0.0 | 81 | 0 | 85 | 85 | 86 | 86 |
| 08/29/2026 | 22:00:00 | 241 | 72 | 21:06:01 | 71 | 21:42:05 | 71 | 95 | 21:59:00 | 92 | 21:17:04 | 94.4 | 0 | 0.0 | 82 | 0 | 84 | 84 | 85 | 85 |
| 08/29/2026 | 23:00:00 | 241 | 71 | 22:00:01 | 70 | 22:49:01 | 71 | 96 | 22:55:03 | 94 | 22:00:03 | 95.8 | 0 | 0.0 | 0 | 0 | 83 | 83 | 85 | 84 |
| 08/30/2026 | 0:00:00 | 242 | 71 | 23:00:01 | 70 | 23:34:02 | 70 | 97 | 23:50:01 | 96 | 23:07:00 | 96.5 | 0 | 0.0 | 0 | 0 | 82 | 82 | 84 | 84 |
| 08/30/2026 | 1:00:00 | 242 | 70 | 0:26:04 | 69 | 0:56:00 | 69 | 97 | 0:25:01 | 96 | 0:39:00 | 96.6 | 0 | 0.1 | 22 | 0 | 82 | 82 | 83 | 83 |
| 08/30/2026 | 2:00:00 | 242 | 70 | 1:11:03 | 69 | 1:59:03 | 69 | 97 | 1:53:04 | 97 | 1:21:04 | 96.7 | 0 | 0.1 | 48 | 0 | 81 | 81 | 83 | 82 |
| 08/30/2026 | 3:00:00 | 242 | 69 | 2:35:00 | 69 | 2:59:03 | 69 | 97 | 2:27:03 | 97 | 2:00:04 | 97 | 0 | 0.2 | 75 | 0 | 81 | 80 | 82 | 82 |
| 08/30/2026 | 4:00:00 | 242 | 69 | 3:24:03 | 69 | 3:52:04 | 69 | 97 | 3:59:05 | 97 | 3:00:03 | 97.4 | 0 | 0.0 | 243 | 0 | 80 | 80 | 82 | 81 |
| 08/30/2026 | 5:00:00 | 242 | 69 | 4:22:01 | 69 | 4:58:03 | 69 | 98 | 4:36:03 | 97 | 4:58:03 | 97.3 | 0 | 0.1 | 44 | 0 | 80 | 80 | 81 | 81 |
| 08/30/2026 | 6:00:00 | 242 | 69 | 5:53:04 | 68 | 5:09:02 | 69 | 98 | 5:50:02 | 97 | 5:02:05 | 97.6 | 0 | 0.0 | 99 | 0 | 79 | 79 | 81 | 81 |
| 08/30/2026 | 7:00:00 | 242 | 72 | 7:00:00 | 69 | 6:00:01 | 72 | 98 | 6:24:04 | 97 | 7:00:00 | 97.2 | 0 | 0.1 | 156 | 5 | 79 | 79 | 81 | 81 |
| 08/30/2026 | 8:00:00 | 242 | 83 | 7:56:02 | 72 | 7:00:00 | 83 | 97 | 7:00:00 | 78 | 7:58:05 | 79.26 | 0 | 0.4 | 110 | 29 | 80 | 82 | 81 | 81 |
| 08/30/2026 | 9:00:00 | 242 | 87 | 8:56:04 | 82 | 8:02:00 | 86 | 82 | 8:01:01 | 72 | 8:57:02 | 75.18 | 0 | 1.0 | 10 | 45 | 83 | 85 | 82 | 83 |
| 08/30/2026 | 10:00:00 | 242 | 89 | 9:55:00 | 85 | 9:04:00 | 88 | 77 | 9:09:02 | 66 | 9:59:05 | 66.57 | 0 | 1.5 | 275 | 58 | 86 | 88 | 84 | 85 |
| 08/30/2026 | 11:00:00 | 242 | 91 | 11:00:00 | 88 | 10:02:02 | 91 | 72 | 10:26:02 | 59 | 10:53:00 | 61.11 | 0 | 1.7 | 111 | 67 | 89 | 91 | 86 | 87 |
| 08/30/2026 | 12:00:00 | 242 | 92 | 11:58:04 | 90 | 11:25:00 | 92 | 67 | 11:26:00 | 56 | 11:59:00 | 57.64 | 0 | 1.8 | 74 | 70 | 92 | 93 | 88 | 89 |
| 08/30/2026 | 13:00:00 | 242 | 94 | 12:56:02 | 92 | 12:00:01 | 93 | 63 | 12:00:04 | 53 | 12:42:00 | 55.51 | 0 | 1.9 | 118 | 75 | 95 | 96 | 90 | 91 |
| 08/30/2026 | 14:00:00 | 242 | 94 | 13:27:01 | 91 | 13:04:01 | 93 | 62 | 13:08:02 | 51 | 13:37:00 | 56.87 | 0 | 2.0 | 78 | 66 | 96 | 97 | 92 | 93 |
| 08/30/2026 | 15:00:00 | 242 | 94 | 14:39:02 | 93 | 14:25:01 | 94 | 61 | 14:44:04 | 51 | 14:51:02 | 53.91 | 0 | 1.7 | 86 | 57 | 97 | 97 | 93 | 94 |
| 08/30/2026 | 16:00:00 | 242 | 95 | 15:11:05 | 93 | 15:35:04 | 93 | 59 | 15:18:00 | 49 | 15:16:02 | 52.17 | 0 | 1.4 | 87 | 35 | 96 | 96 | 94 | 94 |
| 08/30/2026 | 17:00:00 | 242 | 94 | 16:01:02 | 91 | 16:56:01 | 92 | 61 | 16:55:01 | 51 | 16:02:04 | 57.7 | 0 | 1.2 | 98 | 23 | 95 | 94 | 93 | 93 |
| 08/30/2026 | 18:00:00 | 242 | 92 | 17:02:03 | 87 | 17:56:00 | 87 | 70 | 17:58:04 | 54 | 17:03:03 | 68.92 | 0 | 0.6 | 124 | 8 | 93 | 92 | 92 | 92 |
| 08/30/2026 | 19:00:00 | 242 | 87 | 18:01:05 | 79 | 18:59:03 | 79 | 84 | 18:44:01 | 69 | 18:00:00 | 82.3 | 0 | 0.1 | 141 | 1 | 91 | 90 | 91 | 90 |
| 08/30/2026 | 20:00:00 | 242 | 79 | 19:00:02 | 77 | 19:59:05 | 77 | 90 | 19:49:02 | 82 | 19:00:00 | 89.1 | 0 | 0.1 | 84 | 0 | 89 | 88 | 90 | 89 |
| 08/30/2026 | 21:00:00 | 242 | 77 | 20:00:02 | 75 | 20:58:01 | 75 | 93 | 20:59:03 | 89 | 20:01:04 | 92.5 | 0 | 0.0 | 169 | 0 | 88 | 87 | 89 | 88 |
| 08/30/2026 | 22:00:00 | 242 | 75 | 21:05:02 | 74 | 21:48:05 | 74 | 95 | 21:56:05 | 93 | 21:00:04 | 94.9 | 0 | 0.0 | 53 | 0 | 87 | 86 | 88 | 87 |
| 08/30/2026 | 23:00:00 | 242 | 74 | 22:00:03 | 73 | 22:49:01 | 73 | 96 | 23:00:00 | 95 | 22:00:00 | 95.9 | 0 | 0.0 | 53 | 0 | 86 | 85 | 87 | 86 |
| 08/31/2026 | 0:00:00 | 243 | 73 | 23:00:00 | 72 | 0:00:00 | 72 | 96 | 23:55:02 | 96 | 23:06:04 | 96.2 | 0 | 0.0 | 251 | 0 | 85 | 84 | 86 | 86 |
| 08/31/2026 | 1:00:00 | 243 | 73 | 0:05:05 | 72 | 0:46:02 | 72 | 97 | 0:59:05 | 96 | 0:00:01 | 97 | 0 | 0.0 | 10 | 0 | 84 | 84 | 85 | 85 |
| 08/31/2026 | 2:00:00 | 243 | 72 | 1:20:05 | 71 | 1:54:00 | 71 | 97 | 1:16:04 | 97 | 1:36:05 | 96.9 | 0 | 0.0 | 240 | 0 | 83 | 83 | 85 | 84 |
| 08/31/2026 | 3:00:00 | 243 | 72 | 2:04:03 | 71 | 2:58:05 | 71 | 98 | 2:43:03 | 97 | 2:38:05 | 97 | 0 | 0.0 | 24 | 0 | 83 | 82 | 84 | 84 |
| 08/31/2026 | 4:00:00 | 243 | 71 | 3:20:02 | 70 | 3:58:02 | 71 | 98 | 3:21:00 | 97 | 3:04:02 | 97.3 | 0 | 0.0 | 0 | 0 | 82 | 82 | 84 | 83 |
| 08/31/2026 | 5:00:00 | 243 | 71 | 4:10:05 | 70 | 4:57:04 | 70 | 98 | 4:54:01 | 97 | 4:18:00 | 97.6 | 0 | 0.0 | 24 | 0 | 82 | 81 | 83 | 83 |
| 08/31/2026 | 6:00:00 | 243 | 71 | 5:14:05 | 70 | 5:00:01 | 70 | 98 | 5:13:02 | 98 | 5:00:02 | 97.8 | 0 | 0.0 | 152 | 0 | 81 | 81 | 83 | 82 |
| 08/31/2026 | 7:00:00 | 243 | 73 | 7:00:00 | 70 | 6:05:03 | 73 | 98 | 6:25:01 | 97 | 6:57:05 | 97.7 | 0 | 0.0 | 178 | 4 | 81 | 81 | 82 | 82 |
| 08/31/2026 | 8:00:00 | 243 | 86 | 8:00:00 | 73 | 7:00:00 | 86 | 98 | 7:04:01 | 73 | 7:58:02 | 74.28 | 0 | 0.2 | 154 | 29 | 82 | 83 | 82 | 82 |
| 08/31/2026 | 9:00:00 | 243 | 89 | 8:59:05 | 85 | 8:07:03 | 89 | 74 | 8:00:00 | 66 | 8:59:05 | 66.2 | 0 | 0.6 | 286 | 45 | 85 | 86 | 83 | 84 |
| 08/31/2026 | 10:00:00 | 243 | 91 | 9:33:05 | 89 | 9:20:01 | 90 | 73 | 9:16:04 | 59 | 9:59:05 | 59.39 | 0 | 1.1 | 198 | 58 | 88 | 90 | 85 | 86 |
| 08/31/2026 | 11:00:00 | 243 | 92 | 10:24:00 | 90 | 10:11:04 | 91 | 67 | 10:40:01 | 57 | 10:07:01 | 60.25 | 0 | 1.8 | 44 | 69 | 91 | 93 | 88 | 89 |
| 08/31/2026 | 12:00:00 | 243 | 94 | 11:52:04 | 90 | 11:36:03 | 94 | 65 | 11:56:02 | 55 | 11:55:03 | 56.55 | 0 | 1.8 | 287 | 66 | 94 | 95 | 90 | 91 |
| 08/31/2026 | 13:00:00 | 243 | 96 | 12:46:02 | 93 | 12:31:04 | 95 | 59 | 12:00:02 | 50 | 12:52:03 | 51.46 | 0 | 1.6 | 101 | 73 | 97 | 98 | 92 | 93 |
| 08/31/2026 | 14:00:00 | 243 | 97 | 13:22:00 | 94 | 13:01:03 | 95 | 58 | 13:31:02 | 49 | 13:22:02 | 52.69 | 0 | 1.8 | 101 | 71 | 98 | 99 | 94 | 95 |
| 08/31/2026 | 15:00:00 | 243 | 97 | 14:55:02 | 92 | 14:21:02 | 97 | 65 | 14:20:00 | 49 | 14:57:00 | 51.23 | 0 | 1.8 | 91 | 49 | 99 | 99 | 95 | 95 |
| 08/31/2026 | 16:00:00 | 243 | 97 | 15:01:00 | 94 | 15:36:03 | 95 | 60 | 15:11:02 | 49 | 15:51:05 | 53.1 | 0 | 1.6 | 96 | 35 | 98 | 98 | 95 | 95 |
| 08/31/2026 | 17:00:00 | 243 | 96 | 16:18:05 | 93 | 16:59:00 | 93 | 63 | 16:58:00 | 51 | 16:02:04 | 59.7 | 0 | 0.8 | 110 | 22 | 97 | 96 | 95 | 95 |
| 08/31/2026 | 18:00:00 | 243 | 94 | 17:05:01 | 89 | 17:55:05 | 89 | 70 | 17:58:05 | 55 | 17:02:03 | 69.71 | 0 | 0.6 | 132 | 8 | 95 | 94 | 94 | 94 |
| 08/31/2026 | 19:00:00 | 243 | 89 | 18:00:02 | 81 | 18:57:04 | 81 | 85 | 19:00:00 | 70 | 18:01:03 | 85.4 | 0 | 0.1 | 124 | 1 | 93 | 92 | 93 | 92 |
| 08/31/2026 | 20:00:00 | 243 | 81 | 19:00:00 | 78 | 19:56:05 | 78 | 91 | 19:53:05 | 85 | 19:00:00 | 90.4 | 0 | 0.1 | 53 | 0 | 91 | 90 | 92 | 91 |
| 08/31/2026 | 21:00:00 | 243 | 78 | 20:01:05 | 77 | 20:54:03 | 77 | 94 | 20:56:00 | 90 | 20:08:01 | 93.3 | 0 | 0.0 | 175 | 0 | 90 | 89 | 90 | 90 |
| 08/31/2026 | 22:00:00 | 243 | 77 | 21:00:00 | 75 | 21:54:05 | 76 | 95 | 21:59:01 | 93 | 21:05:01 | 95.3 | 0 | 0.0 | 60 | 0 | 88 | 88 | 89 | 89 |
| Average | 81.5 | 78.75 | 80.12 | 84.53 | 76.84 | 80.53 | 0.01 | 1.06 | 20.66 | 86.98 | 86.95 | 86.68 | 86.69 | |||||||
| Total | 1.24 |